Terminal Aerodrome Forecast
Issued by NWS Atlanta, GA

Home | Current Version | Previous Version | Text Only | Print | Product List | Glossary On
Versions: 1 2 3 4 5 6 7 8 9 10 11 12 13 14 15 16 17 18 19 20 21 22 23 24 25 26 27 28 29 30 31 32 33 34 35 36
750
FTAK31 PAJN 041140
TAFAHN
TAF
PAHN 041140Z 0412/0512 08007KT P6SM OVC080
     FM041900 09009G17KT P6SM VCSH OVC060
     FM042200 11012G23KT P6SM VCSH OVC060
     FM050200 11008G19KT P6SM OVC050
     FM050900 09010G20KT P6SM -RA SCT020 OVC040
     FM051100 09010G20KT P6SM -RA BKN020 OVC040
      AMD LTD TO CLD VIS AND WIND=

USA.gov is the U.S. government's official web portal to all federal, state and local government web resources and services.